createdAt,value
2019-02-12T00:02:04.018Z,8.50
2019-02-12T00:04:33.654Z,8.30
2019-02-12T00:07:03.514Z,8.70
2019-02-12T00:09:34.348Z,8.40
2019-02-12T00:12:04.296Z,7.20
2019-02-12T00:14:34.759Z,7.40
2019-02-12T00:17:04.392Z,7.10
2019-02-12T00:19:34.435Z,6.60
2019-02-12T00:22:04.171Z,6.70
2019-02-12T00:24:34.861Z,6.60
2019-02-12T00:27:05.134Z,6.70
2019-02-12T00:29:35.222Z,6.30
2019-02-12T00:32:05.464Z,6.40
2019-02-12T00:34:35.595Z,5.90
2019-02-12T00:37:05.543Z,5.80
2019-02-12T00:39:35.706Z,5.60
2019-02-12T00:42:05.806Z,5.30
2019-02-12T00:44:35.981Z,5.30
2019-02-12T00:47:06.073Z,5.40
2019-02-12T00:49:36.363Z,5.40
2019-02-12T00:52:06.491Z,5.50
2019-02-12T00:54:36.451Z,5.30
2019-02-12T00:57:06.651Z,5.70
2019-02-12T00:59:37.086Z,5.90
2019-02-12T01:02:07.348Z,5.80
2019-02-12T01:04:36.952Z,6.00
2019-02-12T01:07:06.529Z,6.00
2019-02-12T01:09:36.794Z,5.90
2019-02-12T01:12:06.829Z,6.00
2019-02-12T01:14:36.098Z,6.30
2019-02-12T01:17:05.999Z,6.10
2019-02-12T01:19:36.027Z,6.00
2019-02-12T01:22:06.444Z,6.00
2019-02-12T01:24:36.849Z,5.70
2019-02-12T01:27:06.622Z,5.80
2019-02-12T01:29:37.090Z,6.00
2019-02-12T01:32:07.178Z,6.00
2019-02-12T01:34:37.567Z,5.80
2019-02-12T01:37:08.031Z,5.90
2019-02-12T01:39:37.977Z,6.10
2019-02-12T01:42:07.960Z,6.00
2019-02-12T01:44:37.707Z,6.20
2019-02-12T01:47:07.897Z,6.00
2019-02-12T01:49:37.972Z,6.00
2019-02-12T01:52:07.784Z,6.10
2019-02-12T01:54:38.118Z,6.00
2019-02-12T01:57:08.464Z,5.80
2019-02-12T01:59:38.713Z,5.70
2019-02-12T02:02:08.830Z,5.50
2019-02-12T02:04:39.017Z,5.70
2019-02-12T02:07:10.393Z,5.70
2019-02-12T02:09:40.038Z,6.00
2019-02-12T02:12:10.764Z,6.10
2019-02-12T02:14:41.232Z,6.10
2019-02-12T02:17:11.439Z,6.40
2019-02-12T02:19:41.780Z,6.20
2019-02-12T02:22:11.665Z,6.20
2019-02-12T02:24:42.414Z,6.10
2019-02-12T02:27:12.100Z,6.20
2019-02-12T02:29:42.265Z,5.90
2019-02-12T02:32:11.882Z,5.90
2019-02-12T02:34:41.425Z,5.80
2019-02-12T02:37:11.586Z,5.90
2019-02-12T02:39:41.825Z,5.90
2019-02-12T02:42:11.566Z,6.20
2019-02-12T02:44:41.513Z,6.20
2019-02-12T02:47:11.982Z,6.40
2019-02-12T02:49:42.413Z,6.60
2019-02-12T02:52:12.355Z,6.40
2019-02-12T02:54:43.838Z,6.40
2019-02-12T02:57:13.494Z,6.30
2019-02-12T02:59:45.065Z,6.20
2019-02-12T03:02:14.870Z,6.20
2019-02-12T03:04:44.607Z,6.10
2019-02-12T03:07:15.288Z,6.20
2019-02-12T03:09:45.465Z,6.20
2019-02-12T03:12:15.868Z,6.00
2019-02-12T03:14:47.807Z,5.90
2019-02-12T03:17:17.676Z,6.00
2019-02-12T03:19:47.351Z,5.80
2019-02-12T03:22:18.027Z,5.30
2019-02-12T03:24:48.947Z,5.20
2019-02-12T03:27:18.533Z,5.10
2019-02-12T03:29:48.794Z,5.10
2019-02-12T03:32:18.585Z,5.10
2019-02-12T03:34:49.129Z,5.10
2019-02-12T03:37:18.888Z,5.00
2019-02-12T03:39:48.464Z,5.30
2019-02-12T03:42:19.112Z,5.20
2019-02-12T03:44:48.631Z,5.10
2019-02-12T03:47:18.578Z,5.00
2019-02-12T03:49:48.755Z,5.10
2019-02-12T03:52:19.927Z,5.40
2019-02-12T03:54:50.369Z,5.40
2019-02-12T03:57:20.407Z,5.30
2019-02-12T03:59:50.387Z,5.60
2019-02-12T04:02:20.729Z,5.40
2019-02-12T04:04:51.012Z,5.40
2019-02-12T04:07:21.532Z,5.10
2019-02-12T04:09:51.487Z,4.90
2019-02-12T04:12:21.624Z,4.80
2019-02-12T04:14:53.297Z,4.90
2019-02-12T04:17:23.252Z,4.80
2019-02-12T04:19:53.510Z,4.60
2019-02-12T04:22:23.383Z,4.60
2019-02-12T04:24:54.218Z,4.80
2019-02-12T04:27:24.388Z,4.60
2019-02-12T04:29:54.825Z,4.60
2019-02-12T04:32:24.821Z,4.80
2019-02-12T04:34:54.773Z,4.70
2019-02-12T04:37:24.746Z,4.80
2019-02-12T04:39:54.727Z,4.50
2019-02-12T04:42:24.576Z,4.60
2019-02-12T04:44:54.317Z,4.30
2019-02-12T04:47:24.217Z,4.40
2019-02-12T04:49:54.410Z,4.20
2019-02-12T04:52:31.763Z,4.20
2019-02-12T04:54:56.352Z,4.10
2019-02-12T04:57:26.044Z,4.30
2019-02-12T04:59:55.710Z,4.40
2019-02-12T05:02:26.066Z,4.20
2019-02-12T05:04:56.166Z,4.40
2019-02-12T05:09:55.762Z,4.70
2019-02-12T05:12:26.113Z,4.80
2019-02-12T05:14:56.076Z,4.80
2019-02-12T05:17:26.348Z,4.00
2019-02-12T05:19:56.429Z,4.10
2019-02-12T05:22:26.134Z,3.90
2019-02-12T05:24:58.144Z,4.20
2019-02-12T05:27:27.923Z,3.80
2019-02-12T05:29:58.354Z,4.10
2019-02-12T05:32:28.676Z,4.20
2019-02-12T05:34:58.577Z,4.50
2019-02-12T05:37:28.242Z,4.50
2019-02-12T05:39:58.836Z,3.90
2019-02-12T05:42:28.794Z,3.90
2019-02-12T05:44:58.262Z,3.80
2019-02-12T05:47:28.257Z,4.00
2019-02-12T05:49:58.123Z,3.90
2019-02-12T05:52:28.216Z,4.50
2019-02-12T05:54:58.583Z,4.50
2019-02-12T05:57:28.479Z,3.70
2019-02-12T05:59:58.681Z,3.90
2019-02-12T06:02:28.482Z,3.90
2019-02-12T06:04:58.548Z,3.80
2019-02-12T06:07:28.624Z,4.00
2019-02-12T06:09:58.801Z,3.80
2019-02-12T06:12:28.835Z,3.50
2019-02-12T06:14:58.753Z,3.70
2019-02-12T06:17:29.113Z,3.80
2019-02-12T06:19:58.769Z,3.80
2019-02-12T06:22:29.381Z,3.70
2019-02-12T06:25:00.349Z,3.80
2019-02-12T06:27:30.796Z,3.80
2019-02-12T06:30:00.874Z,4.10
2019-02-12T06:32:30.959Z,4.10
2019-02-12T06:35:00.614Z,3.90
2019-02-12T06:37:30.454Z,4.00
2019-02-12T06:40:00.451Z,4.00
2019-02-12T06:42:30.344Z,4.20
2019-02-12T06:45:00.571Z,4.30
2019-02-12T06:47:30.406Z,4.30
2019-02-12T06:50:01.130Z,4.40
2019-02-12T06:52:31.449Z,4.50
2019-02-12T06:55:01.938Z,4.40
2019-02-12T06:57:32.501Z,4.40
2019-02-12T07:00:02.361Z,4.60
2019-02-12T07:03:24.353Z,4.70
2019-02-12T07:06:20.577Z,4.80
2019-02-12T07:09:15.484Z,4.90
2019-02-12T07:12:21.662Z,4.80
2019-02-12T07:15:01.722Z,4.60
2019-02-12T07:18:10.711Z,4.50
2019-02-12T07:21:12.902Z,4.80
2019-02-12T07:24:06.921Z,5.10
2019-02-12T07:27:17.355Z,5.00
2019-02-12T07:30:15.887Z,5.10
2019-02-12T07:33:28.081Z,4.80
2019-02-12T07:36:31.429Z,4.90
2019-02-12T07:39:30.787Z,5.10
2019-02-12T07:42:35.266Z,5.00
2019-02-12T07:45:32.870Z,4.90
2019-02-12T07:48:34.487Z,4.50
2019-02-12T07:51:27.239Z,4.60
2019-02-12T07:54:18.983Z,5.10
2019-02-12T07:57:14.469Z,5.00
2019-02-12T08:00:08.281Z,4.80
2019-02-12T08:03:29.063Z,4.30
2019-02-12T08:06:28.549Z,4.40
2019-02-12T08:09:28.538Z,4.90
2019-02-12T08:12:31.263Z,5.00
2019-02-12T08:15:27.178Z,5.00
2019-02-12T08:18:37.243Z,5.30
2019-02-12T08:21:51.216Z,5.60
2019-02-12T08:25:02.056Z,6.00
2019-02-12T08:28:08.631Z,6.10
2019-02-12T08:31:02.814Z,6.10
2019-02-12T08:34:20.030Z,6.30
2019-02-12T08:37:12.032Z,6.60
2019-02-12T08:40:10.673Z,6.60
2019-02-12T08:43:28.258Z,6.70
2019-02-12T08:46:27.484Z,7.00
2019-02-12T08:49:31.910Z,7.10
2019-02-12T08:52:10.984Z,7.00
2019-02-12T08:55:02.416Z,7.10
2019-02-12T08:57:58.903Z,7.30
2019-02-12T09:01:12.335Z,7.40
2019-02-12T09:04:38.718Z,7.50
2019-02-12T09:07:20.170Z,7.60
2019-02-12T09:10:28.871Z,7.80
2019-02-12T09:13:36.518Z,7.90
2019-02-12T09:16:32.393Z,7.90
2019-02-12T09:19:22.083Z,8.10
2019-02-12T09:22:28.948Z,8.10
2019-02-12T09:25:38.323Z,8.30
2019-02-12T09:28:30.933Z,8.50
2019-02-12T09:31:25.528Z,8.40
2019-02-12T09:34:35.681Z,8.80
2019-02-12T09:37:44.508Z,8.80
2019-02-12T09:40:57.442Z,9.00
2019-02-12T09:44:05.630Z,9.20
2019-02-12T09:47:05.628Z,9.40
2019-02-12T09:50:20.002Z,9.50
2019-02-12T09:53:52.524Z,9.90
2019-02-12T09:57:06.126Z,9.70
2019-02-12T09:59:49.153Z,9.90
2019-02-12T10:02:59.939Z,10.20
2019-02-12T10:05:46.095Z,10.00
2019-02-12T10:09:02.119Z,10.10
2019-02-12T10:12:01.230Z,10.20
2019-02-12T10:15:15.377Z,10.30
2019-02-12T10:18:28.609Z,10.40
2019-02-12T10:21:34.562Z,10.60
2019-02-12T10:24:37.856Z,10.90
2019-02-12T10:27:25.214Z,10.90
2019-02-12T10:30:24.179Z,11.10
2019-02-12T10:32:53.809Z,11.30
2019-02-12T10:35:23.827Z,11.30
2019-02-12T10:37:54.398Z,11.30
2019-02-12T10:40:24.621Z,11.60
2019-02-12T10:42:55.277Z,12.00
2019-02-12T10:45:25.901Z,12.10
2019-02-12T10:47:56.484Z,12.10
2019-02-12T10:50:26.446Z,12.20
2019-02-12T10:52:57.107Z,12.20
2019-02-12T10:55:26.789Z,12.40
2019-02-12T10:57:56.512Z,12.50
2019-02-12T11:00:26.974Z,12.50
2019-02-12T11:02:56.719Z,13.00
2019-02-12T11:05:26.911Z,13.00
2019-02-12T11:07:56.852Z,13.20
2019-02-12T11:10:26.922Z,13.40
2019-02-12T11:12:56.620Z,12.80
2019-02-12T11:15:26.975Z,13.00
2019-02-12T11:17:56.799Z,16.00
2019-02-12T11:20:28.197Z,13.40
2019-02-12T11:22:58.371Z,13.80
2019-02-12T11:25:29.011Z,14.00
2019-02-12T11:27:59.785Z,14.20
2019-02-12T11:30:51.475Z,14.00
2019-02-12T11:33:22.326Z,13.70
2019-02-12T11:35:53.360Z,14.00
2019-02-12T11:38:23.478Z,14.10
2019-02-12T11:40:53.432Z,14.50
2019-02-12T11:43:23.790Z,14.50
2019-02-12T11:45:54.041Z,14.60
2019-02-12T11:48:24.057Z,14.60
2019-02-12T11:50:54.059Z,14.60
2019-02-12T11:53:23.909Z,14.70
2019-02-12T11:55:54.115Z,14.80
2019-02-12T11:58:25.891Z,15.00
2019-02-12T12:01:00.712Z,15.00
2019-02-12T12:03:30.642Z,15.00
2019-02-12T12:06:00.990Z,14.80
2019-02-12T12:08:32.283Z,14.70
2019-02-12T12:11:02.013Z,15.00
2019-02-12T12:13:32.247Z,15.40
2019-02-12T12:16:02.495Z,15.30
2019-02-12T12:18:51.521Z,15.80
2019-02-12T12:24:05.075Z,15.70
2019-02-12T12:26:35.360Z,15.70
2019-02-12T12:29:05.180Z,15.70
2019-02-12T12:31:35.079Z,16.00
2019-02-12T12:34:05.451Z,16.30
2019-02-12T12:36:35.110Z,16.40
2019-02-12T12:39:06.125Z,16.30
2019-02-12T12:41:36.645Z,16.00
2019-02-12T12:44:06.753Z,16.20
2019-02-12T12:46:37.344Z,16.60
2019-02-12T12:49:07.106Z,16.90
2019-02-12T12:51:37.324Z,17.00
2019-02-12T12:54:10.091Z,16.90
2019-02-12T12:56:40.439Z,16.90
2019-02-12T12:59:11.029Z,16.40
2019-02-12T13:01:40.763Z,16.40
2019-02-12T13:04:12.325Z,16.60
2019-02-12T13:07:49.351Z,16.00
2019-02-12T13:10:46.451Z,16.70
2019-02-12T13:14:20.673Z,16.80
2019-02-12T13:17:40.547Z,17.00
2019-02-12T13:20:27.096Z,16.90
2019-02-12T13:23:59.457Z,16.80
2019-02-12T13:26:33.561Z,16.70
2019-02-12T13:29:09.033Z,16.60
2019-02-12T13:32:10.176Z,16.50
2019-02-12T13:34:40.265Z,16.60
2019-02-12T13:37:10.040Z,16.70
2019-02-12T13:39:40.582Z,16.60
2019-02-12T13:42:10.299Z,16.80
2019-02-12T13:44:42.452Z,16.60
2019-02-12T13:47:12.295Z,16.60
2019-02-12T13:49:42.974Z,16.70
2019-02-12T13:52:12.604Z,17.00
2019-02-12T13:54:42.703Z,17.30
2019-02-12T13:57:33.454Z,17.00
2019-02-12T14:00:03.528Z,17.00
2019-02-12T14:02:34.273Z,17.00
2019-02-12T14:05:04.659Z,17.20
2019-02-12T14:07:34.832Z,17.20
2019-02-12T14:10:05.009Z,17.40
2019-02-12T14:12:35.338Z,17.00
2019-02-12T14:15:05.219Z,16.50
2019-02-12T14:17:35.116Z,16.50
2019-02-12T14:20:26.522Z,16.10
2019-02-12T14:22:56.232Z,16.80
2019-02-12T14:25:26.711Z,16.80
2019-02-12T14:27:56.528Z,16.80
2019-02-12T14:30:26.456Z,16.70
2019-02-12T14:32:56.358Z,17.20
2019-02-12T14:35:26.016Z,17.40
2019-02-12T14:37:55.915Z,17.10
2019-02-12T14:40:25.894Z,17.00
2019-02-12T14:42:56.017Z,16.90
2019-02-12T14:45:26.479Z,17.50
2019-02-12T18:05:44.306Z,9.80
2019-02-12T18:08:15.415Z,9.70
2019-02-12T18:10:46.540Z,9.30
2019-02-12T18:13:38.333Z,9.50
2019-02-12T18:16:10.356Z,9.40
2019-02-12T18:18:41.775Z,9.40
2019-02-12T18:21:12.988Z,9.20
2019-02-12T18:23:44.852Z,9.20
2019-02-12T18:26:16.339Z,9.10
2019-02-12T18:28:47.358Z,9.30
2019-02-12T18:31:18.513Z,9.20
2019-02-12T18:33:49.862Z,9.20
2019-02-12T18:36:20.656Z,9.20
2019-02-12T18:38:51.895Z,9.20
2019-02-12T18:41:22.734Z,9.00
2019-02-12T18:43:53.730Z,9.00
2019-02-12T18:46:24.666Z,8.90
2019-02-12T18:48:55.499Z,9.00
2019-02-12T18:51:26.446Z,9.00
2019-02-12T18:53:57.771Z,8.80
2019-02-12T18:56:29.069Z,8.80
2019-02-12T18:59:00.066Z,8.80
2019-02-12T19:01:31.422Z,8.90
2019-02-12T19:04:02.656Z,8.80
2019-02-12T19:06:33.879Z,8.80
2019-02-12T19:09:07.905Z,8.70
2019-02-12T19:11:52.591Z,8.60
2019-02-12T19:14:13.989Z,8.60
2019-02-12T19:16:47.005Z,8.50
2019-02-12T19:19:17.448Z,8.60
2019-02-12T19:21:48.296Z,8.50
2019-02-12T19:24:19.553Z,8.60
2019-02-12T19:26:50.709Z,8.60
2019-02-12T19:29:21.240Z,8.30
2019-02-12T19:31:59.097Z,8.50
2019-02-12T19:34:24.812Z,8.20
2019-02-12T19:37:25.455Z,8.20
2019-02-12T19:39:58.720Z,8.20
2019-02-12T19:42:29.979Z,8.00
2019-02-12T19:45:01.025Z,8.00
2019-02-12T19:47:33.322Z,7.90
2019-02-12T19:50:04.108Z,8.10
2019-02-12T19:52:35.026Z,7.60
2019-02-12T19:55:06.495Z,7.70
2019-02-12T19:57:37.866Z,7.80
2019-02-12T20:00:10.854Z,7.90
2019-02-12T20:02:42.642Z,8.00
2019-02-12T20:05:13.598Z,7.90
2019-02-12T20:07:46.209Z,8.10
2019-02-12T20:10:16.871Z,8.00
2019-02-12T20:12:47.933Z,7.80
2019-02-12T20:15:18.597Z,7.50
2019-02-12T20:17:49.696Z,7.50
2019-02-12T20:20:20.486Z,7.40
2019-02-12T20:22:51.166Z,7.20
2019-02-12T20:25:22.333Z,7.50
2019-02-12T20:27:53.598Z,7.50
2019-02-12T20:30:24.335Z,7.50
2019-02-12T20:32:54.811Z,7.30
2019-02-12T20:35:26.030Z,7.20
2019-02-12T20:37:56.724Z,6.90
2019-02-12T20:40:28.298Z,6.90
2019-02-12T20:42:59.047Z,6.80
2019-02-12T20:45:30.537Z,7.10
2019-02-12T20:48:01.744Z,7.20
2019-02-12T20:50:32.560Z,7.40
2019-02-12T20:53:03.981Z,7.40
2019-02-12T20:55:34.713Z,7.30
2019-02-12T20:58:05.918Z,7.10
2019-02-12T21:00:37.530Z,7.10
2019-02-12T21:03:08.938Z,6.90
2019-02-12T21:05:41.190Z,6.60
2019-02-12T21:08:12.219Z,5.40
2019-02-12T21:10:43.556Z,5.50
2019-02-12T21:13:14.524Z,6.10
2019-02-12T21:15:45.046Z,6.30
2019-02-12T21:18:15.816Z,6.30
2019-02-12T21:20:46.825Z,6.20
2019-02-12T21:23:18.307Z,6.30
2019-02-12T21:25:49.164Z,6.40
2019-02-12T21:28:19.825Z,6.20
2019-02-12T21:30:50.391Z,6.40
2019-02-12T21:33:21.174Z,6.60
2019-02-12T21:35:59.733Z,6.60
2019-02-12T21:38:39.486Z,6.20
2019-02-12T21:41:19.431Z,6.30
2019-02-12T21:43:57.734Z,6.30
2019-02-12T21:46:36.043Z,5.90
2019-02-12T21:49:14.359Z,5.80
2019-02-12T21:51:52.471Z,5.70
2019-02-12T21:54:30.983Z,5.50
2019-02-12T21:57:09.259Z,5.80
2019-02-12T22:02:52.333Z,5.70
2019-02-12T22:05:31.728Z,5.70
2019-02-12T22:08:09.996Z,5.90
2019-02-12T22:10:47.988Z,5.80
2019-02-12T22:13:27.739Z,5.80
2019-02-12T22:16:06.459Z,5.70
2019-02-12T22:18:44.543Z,5.80
2019-02-12T22:21:22.442Z,5.30
2019-02-12T22:24:00.456Z,4.90
2019-02-12T22:26:40.201Z,5.20
2019-02-12T22:29:18.833Z,4.60
2019-02-12T22:31:57.039Z,4.80
2019-02-12T22:34:36.292Z,5.20
2019-02-12T22:37:14.247Z,5.50
2019-02-12T22:39:52.389Z,5.70
2019-02-12T22:42:30.592Z,5.80
2019-02-12T22:45:08.704Z,5.80
2019-02-12T22:47:46.573Z,5.50
2019-02-12T22:50:24.432Z,5.20
2019-02-12T22:53:02.585Z,5.00
2019-02-12T22:58:16.129Z,5.00
2019-02-12T23:01:05.707Z,4.80
2019-02-12T23:03:44.123Z,4.80
2019-02-12T23:09:21.226Z,5.20
2019-02-12T23:11:59.352Z,5.20
2019-02-12T23:14:37.232Z,4.90
2019-02-12T23:17:15.461Z,4.90
2019-02-12T23:19:53.543Z,5.00
2019-02-12T23:22:32.991Z,5.10
2019-02-12T23:25:11.289Z,5.70
2019-02-12T23:27:57.291Z,5.70
2019-02-12T23:30:30.195Z,5.60
2019-02-12T23:33:08.172Z,5.60
2019-02-12T23:35:46.181Z,5.70
2019-02-12T23:38:24.401Z,5.70
2019-02-12T23:41:02.489Z,5.90
2019-02-12T23:43:40.385Z,5.60
2019-02-12T23:46:19.022Z,6.00
2019-02-12T23:48:57.225Z,5.80
2019-02-12T23:51:35.428Z,5.50
2019-02-12T23:54:13.531Z,5.50
2019-02-12T23:56:51.638Z,5.50
2019-02-12T23:59:29.838Z,5.40
